sensor_id;sensor_type;location;lat;lon;timestamp;pressure;altitude;pressure_sealevel;temperature
24201;BMP280;2801;50.972;7.856;2022-12-11T00:00:25;96937.59;;;-0.27
24201;BMP280;2801;50.972;7.856;2022-12-11T00:02:52;96936.28;;;-0.30
24201;BMP280;2801;50.972;7.856;2022-12-11T00:05:19;96937.59;;;-0.27
24201;BMP280;2801;50.972;7.856;2022-12-11T00:07:46;96938.66;;;-0.28
24201;BMP280;2801;50.972;7.856;2022-12-11T00:10:13;96937.09;;;-0.29
24201;BMP280;2801;50.972;7.856;2022-12-11T00:12:40;96942.88;;;-0.27
24201;BMP280;2801;50.972;7.856;2022-12-11T00:15:07;96928.13;;;-0.28
24201;BMP280;2801;50.972;7.856;2022-12-11T00:17:35;96941.31;;;-0.28
24201;BMP280;2801;50.972;7.856;2022-12-11T00:20:03;96946.06;;;-0.30
24201;BMP280;2801;50.972;7.856;2022-12-11T00:22:30;96936.28;;;-0.30
24201;BMP280;2801;50.972;7.856;2022-12-11T00:24:57;96938.16;;;-0.30
24201;BMP280;2801;50.972;7.856;2022-12-11T00:27:24;96941.28;;;-0.23
24201;BMP280;2801;50.972;7.856;2022-12-11T00:29:51;96950.50;;;-0.21
24201;BMP280;2801;50.972;7.856;2022-12-11T00:32:18;96933.94;;;-0.26
24201;BMP280;2801;50.972;7.856;2022-12-11T00:34:45;96951.28;;;-0.20
24201;BMP280;2801;50.972;7.856;2022-12-11T00:37:11;96950.22;;;-0.19
24201;BMP280;2801;50.972;7.856;2022-12-11T00:39:38;96947.34;;;-0.23
24201;BMP280;2801;50.972;7.856;2022-12-11T00:42:06;96943.69;;;-0.32
24201;BMP280;2801;50.972;7.856;2022-12-11T00:44:34;96945.50;;;-0.27
24201;BMP280;2801;50.972;7.856;2022-12-11T00:47:02;96942.09;;;-0.33
24201;BMP280;2801;50.972;7.856;2022-12-11T00:49:29;96942.09;;;-0.28
24201;BMP280;2801;50.972;7.856;2022-12-11T00:51:56;96948.41;;;-0.29
24201;BMP280;2801;50.972;7.856;2022-12-11T00:54:23;96941.31;;;-0.28
24201;BMP280;2801;50.972;7.856;2022-12-11T00:56:49;96936.28;;;-0.30
24201;BMP280;2801;50.972;7.856;2022-12-11T00:59:16;96947.09;;;-0.26
24201;BMP280;2801;50.972;7.856;2022-12-11T01:01:43;96927.09;;;-0.42
24201;BMP280;2801;50.972;7.856;2022-12-11T01:04:10;96952.34;;;-0.31
24201;BMP280;2801;50.972;7.856;2022-12-11T01:06:38;96944.47;;;-0.31
24201;BMP280;2801;50.972;7.856;2022-12-11T01:09:05;96957.09;;;-0.28
24201;BMP280;2801;50.972;7.856;2022-12-11T01:11:51;96933.69;;;-0.35
24201;BMP280;2801;50.972;7.856;2022-12-11T01:14:18;96949.75;;;-0.36
24201;BMP280;2801;50.972;7.856;2022-12-11T01:16:45;96944.47;;;-0.36
24201;BMP280;2801;50.972;7.856;2022-12-11T01:19:12;96941.84;;;-0.36
24201;BMP280;2801;50.972;7.856;2022-12-11T01:21:39;96935.28;;;-0.39
24201;BMP280;2801;50.972;7.856;2022-12-11T01:24:06;96951.84;;;-0.33
24201;BMP280;2801;50.972;7.856;2022-12-11T01:26:33;96917.13;;;-0.55
24201;BMP280;2801;50.972;7.856;2022-12-11T01:29:00;96939.72;;;-0.34
24201;BMP280;2801;50.972;7.856;2022-12-11T01:31:27;96947.88;;;-0.31
24201;BMP280;2801;50.972;7.856;2022-12-11T01:33:55;96947.09;;;-0.31
24201;BMP280;2801;50.972;7.856;2022-12-11T01:36:23;96937.59;;;-0.27
24201;BMP280;2801;50.972;7.856;2022-12-11T01:38:50;96936.56;;;-0.31
24201;BMP280;2801;50.972;7.856;2022-12-11T01:41:17;96938.16;;;-0.30
24201;BMP280;2801;50.972;7.856;2022-12-11T01:44:04;96941.53;;;-0.25
24201;BMP280;2801;50.972;7.856;2022-12-11T01:46:35;96942.06;;;-0.23
24201;BMP280;2801;50.972;7.856;2022-12-11T01:49:08;96948.91;;;-0.22
24201;BMP280;2801;50.972;7.856;2022-12-11T01:51:53;96946.28;;;-0.22
24201;BMP280;2801;50.972;7.856;2022-12-11T01:54:23;96937.88;;;-0.24
24201;BMP280;2801;50.972;7.856;2022-12-11T01:56:55;96942.06;;;-0.18
24201;BMP280;2801;50.972;7.856;2022-12-11T01:59:26;96938.66;;;-0.18
24201;BMP280;2801;50.972;7.856;2022-12-11T02:02:19;96938.91;;;-0.15
24201;BMP280;2801;50.972;7.856;2022-12-11T02:04:47;96934.94;;;-0.12
24201;BMP280;2801;50.972;7.856;2022-12-11T02:07:17;96939.69;;;-0.09
24201;BMP280;2801;50.972;7.856;2022-12-11T02:09:46;96924.66;;;-0.09
24201;BMP280;2801;50.972;7.856;2022-12-11T02:12:33;96926.50;;;-0.09
24201;BMP280;2801;50.972;7.856;2022-12-11T02:15:31;96928.34;;;-0.10
24201;BMP280;2801;50.972;7.856;2022-12-11T02:18:26;96923.06;;;-0.10
24201;BMP280;2801;50.972;7.856;2022-12-11T02:21:13;96935.47;;;-0.10
24201;BMP280;2801;50.972;7.856;2022-12-11T02:24:21;96930.97;;;-0.10
24201;BMP280;2801;50.972;7.856;2022-12-11T02:30:06;96930.19;;;-0.10
24201;BMP280;2801;50.972;7.856;2022-12-11T02:32:42;96924.41;;;-0.12
24201;BMP280;2801;50.972;7.856;2022-12-11T02:35:29;96935.72;;;-0.12
24201;BMP280;2801;50.972;7.856;2022-12-11T02:38:04;96933.34;;;-0.08
24201;BMP280;2801;50.972;7.856;2022-12-11T02:40:36;96922.56;;;-0.12
24201;BMP280;2801;50.972;7.856;2022-12-11T02:43:07;96921.22;;;-0.09
24201;BMP280;2801;50.972;7.856;2022-12-11T02:45:38;96924.66;;;-0.09
24201;BMP280;2801;50.972;7.856;2022-12-11T02:48:09;96927.03;;;-0.07
24201;BMP280;2801;50.972;7.856;2022-12-11T02:50:41;96926.47;;;-0.04
24201;BMP280;2801;50.972;7.856;2022-12-11T02:53:12;96892.03;;;-0.23
24201;BMP280;2801;50.972;7.856;2022-12-11T02:55:42;96909.38;;;-0.07
24201;BMP280;2801;50.972;7.856;2022-12-11T02:58:25;96923.09;;;-0.15
24201;BMP280;2801;50.972;7.856;2022-12-11T03:00:52;96917.03;;;-0.10
24201;BMP280;2801;50.972;7.856;2022-12-11T03:03:20;96910.47;;;-0.13
24201;BMP280;2801;50.972;7.856;2022-12-11T03:05:47;96888.09;;;-0.25
24201;BMP280;2801;50.972;7.856;2022-12-11T03:08:14;96909.91;;;-0.15
24201;BMP280;2801;50.972;7.856;2022-12-11T03:10:45;96914.91;;;-0.13
24201;BMP280;2801;50.972;7.856;2022-12-11T03:13:16;96914.13;;;-0.14
24201;BMP280;2801;50.972;7.856;2022-12-11T03:24:37;96906.22;;;-0.09
24201;BMP280;2801;50.972;7.856;2022-12-11T03:27:32;96910.69;;;-0.09
24201;BMP280;2801;50.972;7.856;2022-12-11T03:30:10;96908.84;;;-0.09
24201;BMP280;2801;50.972;7.856;2022-12-11T03:33:04;96914.91;;;-0.08
24201;BMP280;2801;50.972;7.856;2022-12-11T03:35:41;96914.13;;;-0.09
24201;BMP280;2801;50.972;7.856;2022-12-11T03:38:24;96917.03;;;-0.10
24201;BMP280;2801;50.972;7.856;2022-12-11T03:40:58;96912.53;;;-0.10
24201;BMP280;2801;50.972;7.856;2022-12-11T03:43:29;96915.44;;;-0.06
24201;BMP280;2801;50.972;7.856;2022-12-11T03:45:59;96912.00;;;-0.07
24201;BMP280;2801;50.972;7.856;2022-12-11T03:48:32;96917.00;;;0.00
24201;BMP280;2801;50.972;7.856;2022-12-11T03:51:06;96924.91;;;0.00
24201;BMP280;2801;50.972;7.856;2022-12-11T03:53:35;96917.50;;;0.02
24201;BMP280;2801;50.972;7.856;2022-12-11T03:56:07;96916.72;;;0.01
24201;BMP280;2801;50.972;7.856;2022-12-11T03:58:35;96908.31;;;-0.01
24201;BMP280;2801;50.972;7.856;2022-12-11T04:01:02;96909.59;;;0.02
24201;BMP280;2801;50.972;7.856;2022-12-11T04:03:29;96913.00;;;0.08
24201;BMP280;2801;50.972;7.856;2022-12-11T04:05:56;96906.41;;;0.10
24201;BMP280;2801;50.972;7.856;2022-12-11T04:08:23;96908.50;;;0.13
24201;BMP280;2801;50.972;7.856;2022-12-11T04:10:51;96910.88;;;0.15
24201;BMP280;2801;50.972;7.856;2022-12-11T04:13:38;96904.84;;;0.09
24201;BMP280;2801;50.972;7.856;2022-12-11T04:16:06;96906.69;;;0.14
24201;BMP280;2801;50.972;7.856;2022-12-11T04:18:34;96904.56;;;0.11
24201;BMP280;2801;50.972;7.856;2022-12-11T04:21:19;96905.91;;;0.08
24201;BMP280;2801;50.972;7.856;2022-12-11T04:24:06;96914.06;;;0.07
24201;BMP280;2801;50.972;7.856;2022-12-11T04:26:44;96911.72;;;0.05
24201;BMP280;2801;50.972;7.856;2022-12-11T04:29:13;96900.44;;;-0.06
24201;BMP280;2801;50.972;7.856;2022-12-11T04:31:39;96918.56;;;0.06
24201;BMP280;2801;50.972;7.856;2022-12-11T04:34:07;96915.13;;;0.11
24201;BMP280;2801;50.972;7.856;2022-12-11T04:36:34;96901.94;;;0.11
24201;BMP280;2801;50.972;7.856;2022-12-11T04:39:02;96905.06;;;0.18
24201;BMP280;2801;50.972;7.856;2022-12-11T04:41:29;96898.47;;;0.15
24201;BMP280;2801;50.972;7.856;2022-12-11T04:43:56;96885.34;;;0.05
24201;BMP280;2801;50.972;7.856;2022-12-11T04:46:24;96897.44;;;0.16
24201;BMP280;2801;50.972;7.856;2022-12-11T04:48:52;96897.44;;;0.16
24201;BMP280;2801;50.972;7.856;2022-12-11T04:51:23;96898.22;;;0.17
24201;BMP280;2801;50.972;7.856;2022-12-11T04:53:51;96901.09;;;0.15
24201;BMP280;2801;50.972;7.856;2022-12-11T04:56:18;96905.34;;;0.16
24201;BMP280;2801;50.972;7.856;2022-12-11T04:58:45;96901.09;;;0.15
24201;BMP280;2801;50.972;7.856;2022-12-11T05:01:19;96902.19;;;0.19
24201;BMP280;2801;50.972;7.856;2022-12-11T05:03:47;96900.84;;;0.22
24201;BMP280;2801;50.972;7.856;2022-12-11T05:06:14;96902.69;;;0.21
24201;BMP280;2801;50.972;7.856;2022-12-11T05:08:42;96900.31;;;0.25
24201;BMP280;2801;50.972;7.856;2022-12-11T05:11:13;96907.41;;;0.24
24201;BMP280;2801;50.972;7.856;2022-12-11T05:13:41;96897.13;;;0.23
24201;BMP280;2801;50.972;7.856;2022-12-11T05:16:12;96907.69;;;0.23
24201;BMP280;2801;50.972;7.856;2022-12-11T05:18:40;96914.53;;;0.29
24201;BMP280;2801;50.972;7.856;2022-12-11T05:21:13;96899.47;;;0.29
24201;BMP280;2801;50.972;7.856;2022-12-11T05:23:41;96892.63;;;0.28
24201;BMP280;2801;50.972;7.856;2022-12-11T05:26:14;96900.81;;;0.27
24201;BMP280;2801;50.972;7.856;2022-12-11T05:28:42;96890.78;;;0.24
24201;BMP280;2801;50.972;7.856;2022-12-11T05:31:20;96893.69;;;0.22
24201;BMP280;2801;50.972;7.856;2022-12-11T05:33:48;96890.56;;;0.20
24201;BMP280;2801;50.972;7.856;2022-12-11T05:36:22;96877.38;;;0.15
24201;BMP280;2801;50.972;7.856;2022-12-11T05:38:51;96891.88;;;0.23
24201;BMP280;2801;50.972;7.856;2022-12-11T05:41:21;96890.78;;;0.24
24201;BMP280;2801;50.972;7.856;2022-12-11T05:43:48;96883.72;;;0.19
24201;BMP280;2801;50.972;7.856;2022-12-11T05:46:20;96880.53;;;0.22
24201;BMP280;2801;50.972;7.856;2022-12-11T05:48:54;96870.25;;;0.21
24201;BMP280;2801;50.972;7.856;2022-12-11T05:51:22;96869.75;;;0.19
24201;BMP280;2801;50.972;7.856;2022-12-11T05:53:51;96876.31;;;0.21
24201;BMP280;2801;50.972;7.856;2022-12-11T05:56:22;96871.03;;;0.21
24201;BMP280;2801;50.972;7.856;2022-12-11T05:58:49;96866.31;;;0.18
24201;BMP280;2801;50.972;7.856;2022-12-11T06:04:00;96864.75;;;0.17
24201;BMP280;2801;50.972;7.856;2022-12-11T06:06:27;96873.94;;;0.25
24201;BMP280;2801;50.972;7.856;2022-12-11T06:08:57;96863.41;;;0.20
24201;BMP280;2801;50.972;7.856;2022-12-11T06:11:29;96857.59;;;0.23
24201;BMP280;2801;50.972;7.856;2022-12-11T06:13:56;96857.06;;;0.26
24201;BMP280;2801;50.972;7.856;2022-12-11T06:16:24;96858.88;;;0.30
24201;BMP280;2801;50.972;7.856;2022-12-11T06:18:51;96860.47;;;0.31
24201;BMP280;2801;50.972;7.856;2022-12-11T06:21:32;96855.69;;;0.33
24201;BMP280;2801;50.972;7.856;2022-12-11T06:24:01;96866.75;;;0.35
24201;BMP280;2801;50.972;7.856;2022-12-11T06:26:29;96854.09;;;0.37
24201;BMP280;2801;50.972;7.856;2022-12-11T06:28:56;96865.16;;;0.39
24201;BMP280;2801;50.972;7.856;2022-12-11T06:31:23;96865.66;;;0.41
24201;BMP280;2801;50.972;7.856;2022-12-11T06:33:50;96867.78;;;0.39
24201;BMP280;2801;50.972;7.856;2022-12-11T06:36:20;96874.91;;;0.39
24201;BMP280;2801;50.972;7.856;2022-12-11T06:38:48;96872.53;;;0.37
24201;BMP280;2801;50.972;7.856;2022-12-11T06:41:16;96864.41;;;0.34
24201;BMP280;2801;50.972;7.856;2022-12-11T06:43:43;96866.50;;;0.32
24201;BMP280;2801;50.972;7.856;2022-12-11T06:46:17;96864.94;;;0.31
24201;BMP280;2801;50.972;7.856;2022-12-11T06:48:45;96864.69;;;0.27
24201;BMP280;2801;50.972;7.856;2022-12-11T06:51:20;96857.28;;;0.29
24201;BMP280;2801;50.972;7.856;2022-12-11T06:53:55;96857.81;;;0.31
24201;BMP280;2801;50.972;7.856;2022-12-11T06:56:23;96854.66;;;0.34
24201;BMP280;2801;50.972;7.856;2022-12-11T06:58:51;96850.16;;;0.35
24201;BMP280;2801;50.972;7.856;2022-12-11T07:01:22;96856.44;;;0.39
24201;BMP280;2801;50.972;7.856;2022-12-11T07:03:56;96858.31;;;0.38
24201;BMP280;2801;50.972;7.856;2022-12-11T07:06:25;96858.56;;;0.42
24201;BMP280;2801;50.972;7.856;2022-12-11T07:08:53;96864.88;;;0.41
24201;BMP280;2801;50.972;7.856;2022-12-11T07:11:20;96873.59;;;0.36
24201;BMP280;2801;50.972;7.856;2022-12-11T07:13:48;96874.69;;;0.30
24201;BMP280;2801;50.972;7.856;2022-12-11T07:16:16;96864.25;;;0.10
24201;BMP280;2801;50.972;7.856;2022-12-11T07:18:49;96883.19;;;0.17
24201;BMP280;2801;50.972;7.856;2022-12-11T07:21:18;96878.44;;;0.19
24201;BMP280;2801;50.972;7.856;2022-12-11T07:23:47;96881.84;;;0.20
24201;BMP280;2801;50.972;7.856;2022-12-11T07:26:18;96872.13;;;0.20
24201;BMP280;2801;50.972;7.856;2022-12-11T07:28:45;96874.72;;;0.25
24201;BMP280;2801;50.972;7.856;2022-12-11T07:31:24;96871.31;;;0.25
24201;BMP280;2801;50.972;7.856;2022-12-11T07:33:54;96876.28;;;0.26
24201;BMP280;2801;50.972;7.856;2022-12-11T07:36:22;96879.19;;;0.30
24201;BMP280;2801;50.972;7.856;2022-12-11T07:38:50;96873.91;;;0.30
24201;BMP280;2801;50.972;7.856;2022-12-11T07:41:17;96876.00;;;0.28
24201;BMP280;2801;50.972;7.856;2022-12-11T07:43:45;96886.28;;;0.29
24201;BMP280;2801;50.972;7.856;2022-12-11T07:46:17;96882.63;;;0.25
24201;BMP280;2801;50.972;7.856;2022-12-11T07:48:46;96889.19;;;0.28
24201;BMP280;2801;50.972;7.856;2022-12-11T07:51:18;96890.03;;;0.23
24201;BMP280;2801;50.972;7.856;2022-12-11T07:53:48;96888.97;;;0.24
24201;BMP280;2801;50.972;7.856;2022-12-11T07:56:17;96881.84;;;0.25
24201;BMP280;2801;50.972;7.856;2022-12-11T07:58:44;96879.19;;;0.30
24201;BMP280;2801;50.972;7.856;2022-12-11T08:01:21;96878.91;;;0.31
24201;BMP280;2801;50.972;7.856;2022-12-11T08:03:49;96882.59;;;0.35
24201;BMP280;2801;50.972;7.856;2022-12-11T08:06:17;96883.88;;;0.38
24201;BMP280;2801;50.972;7.856;2022-12-11T08:08:44;96878.88;;;0.36
24201;BMP280;2801;50.972;7.856;2022-12-11T08:11:14;96879.69;;;0.37
24201;BMP280;2801;50.972;7.856;2022-12-11T08:13:42;96876.47;;;0.45
24201;BMP280;2801;50.972;7.856;2022-12-11T08:16:13;96874.06;;;0.48
24201;BMP280;2801;50.972;7.856;2022-12-11T08:18:41;96880.63;;;0.51
24201;BMP280;2801;50.972;7.856;2022-12-11T08:21:18;96883.84;;;0.48
24201;BMP280;2801;50.972;7.856;2022-12-11T08:23:46;96878.06;;;0.41
24201;BMP280;2801;50.972;7.856;2022-12-11T08:26:22;96885.72;;;0.42
24201;BMP280;2801;50.972;7.856;2022-12-11T08:28:49;96880.44;;;0.37
24201;BMP280;2801;50.972;7.856;2022-12-11T08:31:17;96886.53;;;0.38
24201;BMP280;2801;50.972;7.856;2022-12-11T08:33:44;96890.75;;;0.34
24201;BMP280;2801;50.972;7.856;2022-12-11T08:36:15;96878.91;;;0.26
24201;BMP280;2801;50.972;7.856;2022-12-11T08:38:42;96893.88;;;0.41
24201;BMP280;2801;50.972;7.856;2022-12-11T08:41:21;96895.50;;;0.37
24201;BMP280;2801;50.972;7.856;2022-12-11T08:43:49;96887.84;;;0.30
24201;BMP280;2801;50.972;7.856;2022-12-11T08:46:23;96886.56;;;0.28
24201;BMP280;2801;50.972;7.856;2022-12-11T08:48:51;96896.84;;;0.34
24201;BMP280;2801;50.972;7.856;2022-12-11T08:51:24;96892.06;;;0.36
24201;BMP280;2801;50.972;7.856;2022-12-11T08:53:55;96896.78;;;0.39
24201;BMP280;2801;50.972;7.856;2022-12-11T08:56:23;96895.19;;;0.43
24201;BMP280;2801;50.972;7.856;2022-12-11T08:58:51;96886.47;;;0.43
24201;BMP280;2801;50.972;7.856;2022-12-11T09:01:25;96890.19;;;0.42
24201;BMP280;2801;50.972;7.856;2022-12-11T09:03:54;96899.44;;;0.39
24201;BMP280;2801;50.972;7.856;2022-12-11T09:06:25;96857.38;;;0.14
24201;BMP280;2801;50.972;7.856;2022-12-11T09:08:53;96897.56;;;0.40
24201;BMP280;2801;50.972;7.856;2022-12-11T09:11:30;96910.75;;;0.45
24201;BMP280;2801;50.972;7.856;2022-12-11T09:13:58;96907.03;;;0.46
24201;BMP280;2801;50.972;7.856;2022-12-11T09:16:34;96904.66;;;0.49
24201;BMP280;2801;50.972;7.856;2022-12-11T09:19:05;96906.22;;;0.50
24201;BMP280;2801;50.972;7.856;2022-12-11T09:21:33;96904.09;;;0.52
24201;BMP280;2801;50.972;7.856;2022-12-11T09:24:03;96901.47;;;0.52
24201;BMP280;2801;50.972;7.856;2022-12-11T09:26:30;96885.66;;;0.47
24201;BMP280;2801;50.972;7.856;2022-12-11T09:28:58;96896.41;;;0.61
24201;BMP280;2801;50.972;7.856;2022-12-11T09:31:29;96889.78;;;0.63
24201;BMP280;2801;50.972;7.856;2022-12-11T09:34:00;96885.81;;;0.71
24201;BMP280;2801;50.972;7.856;2022-12-11T09:36:27;96886.56;;;0.71
24201;BMP280;2801;50.972;7.856;2022-12-11T09:47:40;96873.69;;;0.65
24201;BMP280;2801;50.972;7.856;2022-12-11T09:55:59;96871.31;;;0.68
24201;BMP280;2801;50.972;7.856;2022-12-11T10:01:32;96874.94;;;0.77
24201;BMP280;2801;50.972;7.856;2022-12-11T10:09:56;96873.91;;;0.73
24201;BMP280;2801;50.972;7.856;2022-12-11T10:13:57;96872.84;;;0.74
24201;BMP280;2801;50.972;7.856;2022-12-11T10:15:59;96866.25;;;0.72
24201;BMP280;2801;50.972;7.856;2022-12-11T10:18:31;96864.38;;;0.77
24201;BMP280;2801;50.972;7.856;2022-12-11T10:21:02;96869.88;;;0.81
24201;BMP280;2801;50.972;7.856;2022-12-11T10:23:40;96868.59;;;0.78
24201;BMP280;2801;50.972;7.856;2022-12-11T10:26:28;96867.25;;;0.81
24201;BMP280;2801;50.972;7.856;2022-12-11T10:28:59;96867.81;;;0.78
24201;BMP280;2801;50.972;7.856;2022-12-11T10:31:55;96855.16;;;0.75
24201;BMP280;2801;50.972;7.856;2022-12-11T10:34:35;96854.06;;;0.81
24201;BMP280;2801;50.972;7.856;2022-12-11T10:37:03;96857.22;;;0.83
24201;BMP280;2801;50.972;7.856;2022-12-11T10:39:30;96855.41;;;0.78
24201;BMP280;2801;50.972;7.856;2022-12-11T10:41:57;96852.28;;;0.71
24201;BMP280;2801;50.972;7.856;2022-12-11T10:44:27;96854.16;;;0.71
24201;BMP280;2801;50.972;7.856;2022-12-11T10:47:18;96850.16;;;0.73
24201;BMP280;2801;50.972;7.856;2022-12-11T10:49:58;96846.94;;;0.81
24201;BMP280;2801;50.972;7.856;2022-12-11T10:52:37;96844.03;;;0.83
24201;BMP280;2801;50.972;7.856;2022-12-11T10:55:29;96847.16;;;0.85
24201;BMP280;2801;50.972;7.856;2022-12-11T10:58:02;96844.50;;;0.90
24201;BMP280;2801;50.972;7.856;2022-12-11T11:00:40;96848.50;;;0.87
24201;BMP280;2801;50.972;7.856;2022-12-11T11:03:26;96848.22;;;0.89
24201;BMP280;2801;50.972;7.856;2022-12-11T11:06:18;96842.63;;;0.90
24201;BMP280;2801;50.972;7.856;2022-12-11T11:08:49;96838.38;;;0.94
24201;BMP280;2801;50.972;7.856;2022-12-11T11:11:34;96838.38;;;0.94
24201;BMP280;2801;50.972;7.856;2022-12-11T11:14:14;96841.53;;;0.96
24201;BMP280;2801;50.972;7.856;2022-12-11T11:16:46;96838.38;;;0.94
24201;BMP280;2801;50.972;7.856;2022-12-11T11:19:32;96838.09;;;0.96
24201;BMP280;2801;50.972;7.856;2022-12-11T11:22:12;96824.13;;;0.95
24201;BMP280;2801;50.972;7.856;2022-12-11T11:24:54;96825.91;;;1.05
24201;BMP280;2801;50.972;7.856;2022-12-11T11:27:29;96820.06;;;1.08
24201;BMP280;2801;50.972;7.856;2022-12-11T11:32:45;96820.81;;;1.13
24201;BMP280;2801;50.972;7.856;2022-12-11T11:37:45;96820.03;;;1.13
24201;BMP280;2801;50.972;7.856;2022-12-11T11:40:18;96810.28;;;1.08
24201;BMP280;2801;50.972;7.856;2022-12-11T11:43:12;96815.28;;;1.10
24201;BMP280;2801;50.972;7.856;2022-12-11T11:45:56;96812.97;;;1.03
24201;BMP280;2801;50.972;7.856;2022-12-11T11:57:59;96809.59;;;0.98
24201;BMP280;2801;50.972;7.856;2022-12-11T12:00:29;96808.47;;;1.04
24201;BMP280;2801;50.972;7.856;2022-12-11T12:03:15;96783.81;;;0.90
24201;BMP280;2801;50.972;7.856;2022-12-11T12:06:11;96811.41;;;1.02
24201;BMP280;2801;50.972;7.856;2022-12-11T12:12:01;96803.59;;;0.92
24201;BMP280;2801;50.972;7.856;2022-12-11T12:21:37;96803.84;;;0.91
24201;BMP280;2801;50.972;7.856;2022-12-11T12:27:25;96784.63;;;0.85
24201;BMP280;2801;50.972;7.856;2022-12-11T12:30:17;96814.28;;;1.06
24201;BMP280;2801;50.972;7.856;2022-12-11T12:38:56;96801.16;;;0.96
24201;BMP280;2801;50.972;7.856;2022-12-11T12:42:05;96799.97;;;0.83
24201;BMP280;2801;50.972;7.856;2022-12-11T12:47:53;96797.59;;;0.82
24201;BMP280;2801;50.972;7.856;2022-12-11T12:50:24;96799.22;;;0.78
24201;BMP280;2801;50.972;7.856;2022-12-11T12:52:54;96794.78;;;0.73
24201;BMP280;2801;50.972;7.856;2022-12-11T12:55:29;96801.63;;;0.74
24201;BMP280;2801;50.972;7.856;2022-12-11T12:58:04;96789.25;;;0.70
24201;BMP280;2801;50.972;7.856;2022-12-11T13:00:41;96786.84;;;0.73
24201;BMP280;2801;50.972;7.856;2022-12-11T13:05:44;96786.03;;;0.78
24201;BMP280;2801;50.972;7.856;2022-12-11T13:08:12;96784.91;;;0.84
24201;BMP280;2801;50.972;7.856;2022-12-11T13:11:05;96783.56;;;0.86
24201;BMP280;2801;50.972;7.856;2022-12-11T13:13:39;96784.31;;;0.92
24201;BMP280;2801;50.972;7.856;2022-12-11T13:18:46;96779.22;;;1.00
24201;BMP280;2801;50.972;7.856;2022-12-11T13:21:36;96777.38;;;1.01
24201;BMP280;2801;50.972;7.856;2022-12-11T13:26:48;96783.97;;;1.03
24201;BMP280;2801;50.972;7.856;2022-12-11T13:29:34;96789.28;;;0.98
24201;BMP280;2801;50.972;7.856;2022-12-11T13:32:23;96781.41;;;0.93
24201;BMP280;2801;50.972;7.856;2022-12-11T13:34:59;96768.59;;;0.82
24201;BMP280;2801;50.972;7.856;2022-12-11T13:37:40;96785.38;;;0.91
24201;BMP280;2801;50.972;7.856;2022-12-11T13:40:36;96789.84;;;0.95
24201;BMP280;2801;50.972;7.856;2022-12-11T13:43:28;96790.59;;;0.96
24201;BMP280;2801;50.972;7.856;2022-12-11T13:46:10;96765.16;;;0.81
24201;BMP280;2801;50.972;7.856;2022-12-11T13:48:47;96795.59;;;1.02
24201;BMP280;2801;50.972;7.856;2022-12-11T13:51:20;96804.28;;;1.03
24201;BMP280;2801;50.972;7.856;2022-12-11T13:53:47;96789.84;;;0.95
24201;BMP280;2801;50.972;7.856;2022-12-11T13:56:20;96791.13;;;0.98
24201;BMP280;2801;50.972;7.856;2022-12-11T13:58:47;96789.84;;;0.95
24201;BMP280;2801;50.972;7.856;2022-12-11T14:01:29;96789.28;;;0.98
24201;BMP280;2801;50.972;7.856;2022-12-11T14:04:11;96774.63;;;0.82
24201;BMP280;2801;50.972;7.856;2022-12-11T14:06:41;96790.94;;;0.89
24201;BMP280;2801;50.972;7.856;2022-12-11T14:09:08;96803.38;;;0.84
24201;BMP280;2801;50.972;7.856;2022-12-11T14:11:41;96806.03;;;0.84
24201;BMP280;2801;50.972;7.856;2022-12-11T14:14:41;96813.16;;;0.83
24201;BMP280;2801;50.972;7.856;2022-12-11T14:17:22;96806.03;;;0.84
24201;BMP280;2801;50.972;7.856;2022-12-11T14:19:52;96814.97;;;0.88
24201;BMP280;2801;50.972;7.856;2022-12-11T14:22:24;96806.81;;;0.84
24201;BMP280;2801;50.972;7.856;2022-12-11T14:24:54;96802.09;;;0.81
24201;BMP280;2801;50.972;7.856;2022-12-11T14:27:22;96783.41;;;0.73
24201;BMP280;2801;50.972;7.856;2022-12-11T14:29:49;96808.66;;;0.84
24201;BMP280;2801;50.972;7.856;2022-12-11T14:32:31;96799.44;;;0.81
24201;BMP280;2801;50.972;7.856;2022-12-11T14:35:03;96809.47;;;0.84
24201;BMP280;2801;50.972;7.856;2022-12-11T14:37:34;96812.66;;;0.81
24201;BMP280;2801;50.972;7.856;2022-12-11T14:40:18;96821.09;;;0.78
24201;BMP280;2801;50.972;7.856;2022-12-11T14:42:51;96825.91;;;0.71
24201;BMP280;2801;50.972;7.856;2022-12-11T14:45:39;96816.41;;;0.70
24201;BMP280;2801;50.972;7.856;2022-12-11T14:48:18;96820.94;;;0.65
24201;BMP280;2801;50.972;7.856;2022-12-11T14:50:52;96820.19;;;0.64
24201;BMP280;2801;50.972;7.856;2022-12-11T14:53:26;96818.84;;;0.62
24201;BMP280;2801;50.972;7.856;2022-12-11T14:56:00;96812.00;;;0.61
24201;BMP280;2801;50.972;7.856;2022-12-11T14:58:29;96815.66;;;0.65
24201;BMP280;2801;50.972;7.856;2022-12-11T15:01:18;96819.38;;;0.64
24201;BMP280;2801;50.972;7.856;2022-12-11T15:03:46;96810.94;;;0.62
24201;BMP280;2801;50.972;7.856;2022-12-11T15:06:31;96813.31;;;0.63
24201;BMP280;2801;50.972;7.856;2022-12-11T15:11:43;96812.00;;;0.61
24201;BMP280;2801;50.972;7.856;2022-12-11T15:14:12;96804.09;;;0.61
24201;BMP280;2801;50.972;7.856;2022-12-11T15:16:42;96809.91;;;0.58
24201;BMP280;2801;50.972;7.856;2022-12-11T15:19:23;96808.13;;;0.53
24201;BMP280;2801;50.972;7.856;2022-12-11T15:21:52;96808.41;;;0.52
24201;BMP280;2801;50.972;7.856;2022-12-11T15:24:29;96807.09;;;0.49
24201;BMP280;2801;50.972;7.856;2022-12-11T15:26:59;96812.38;;;0.49
24201;BMP280;2801;50.972;7.856;2022-12-11T15:29:34;96814.47;;;0.47
24201;BMP280;2801;50.972;7.856;2022-12-11T15:34:47;96812.16;;;0.41
24201;BMP280;2801;50.972;7.856;2022-12-11T15:37:28;96815.06;;;0.39
24201;BMP280;2801;50.972;7.856;2022-12-11T15:39:58;96810.56;;;0.40
24201;BMP280;2801;50.972;7.856;2022-12-11T15:42:37;96814.00;;;0.40
24201;BMP280;2801;50.972;7.856;2022-12-11T15:45:14;96820.88;;;0.36
24201;BMP280;2801;50.972;7.856;2022-12-11T15:47:42;96818.78;;;0.33
24201;BMP280;2801;50.972;7.856;2022-12-11T15:50:26;96818.28;;;0.31
24201;BMP280;2801;50.972;7.856;2022-12-11T15:52:55;96822.75;;;0.31
24201;BMP280;2801;50.972;7.856;2022-12-11T15:55:26;96824.59;;;0.30
24201;BMP280;2801;50.972;7.856;2022-12-11T15:58:02;96823.00;;;0.34
24201;BMP280;2801;50.972;7.856;2022-12-11T16:00:30;96832.50;;;0.35
24201;BMP280;2801;50.972;7.856;2022-12-11T16:02:58;96827.72;;;0.37
24201;BMP280;2801;50.972;7.856;2022-12-11T16:05:26;96833.00;;;0.37
24201;BMP280;2801;50.972;7.856;2022-12-11T16:07:52;96839.03;;;0.43
24201;BMP280;2801;50.972;7.856;2022-12-11T16:10:21;96841.38;;;0.44
24201;BMP280;2801;50.972;7.856;2022-12-11T16:12:48;96844.78;;;0.50
24201;BMP280;2801;50.972;7.856;2022-12-11T16:15:15;96839.50;;;0.50
24201;BMP280;2801;50.972;7.856;2022-12-11T16:17:49;96840.03;;;0.52
24201;BMP280;2801;50.972;7.856;2022-12-11T16:20:24;96840.25;;;0.55
24201;BMP280;2801;50.972;7.856;2022-12-11T16:22:50;96843.44;;;0.57
24201;BMP280;2801;50.972;7.856;2022-12-11T16:25:17;96836.56;;;0.56
24201;BMP280;2801;50.972;7.856;2022-12-11T16:27:44;96842.41;;;0.53
24201;BMP280;2801;50.972;7.856;2022-12-11T16:30:12;96842.69;;;0.52
24201;BMP280;2801;50.972;7.856;2022-12-11T16:32:39;96841.66;;;0.48